Time;durP1;ratioP1;P1;durP2;ratioP2;P2;SDS_P1;SDS_P2;PMS_P1;PMS_P2;Temp;Humidity;BMP_temperature;BMP_pressure;BME280_temperature;BME280_humidity;BME280_pressure;Samples;Min_cycle;Max_cycle;Signal;HPM_P1;HPM_P2
2021/03/09 00:01:33;;;;;;;42.57;18.87;;;;;;;3.34;69.96;100681.91;5032349;28;20029;-70
2021/03/09 00:03:58;;;;;;;38.50;18.73;;;;;;;3.39;69.62;100679.69;5034647;28;20025;-67
2021/03/09 00:06:24;;;;;;;37.20;17.63;;;;;;;3.40;70.97;100682.34;5050856;28;20472;-67
2021/03/09 00:08:50;;;;;;;52.47;21.60;;;;;;;3.30;70.76;100697.81;5050691;28;20025;-70
2021/03/09 00:11:15;;;;;;;29.70;17.20;;;;;;;3.35;70.73;100683.69;5050867;28;20021;-66
2021/03/09 00:13:41;;;;;;;29.70;15.47;;;;;;;3.48;70.07;100684.56;5050143;28;20021;-69
2021/03/09 00:16:06;;;;;;;184.40;65.80;;;;;;;3.36;70.53;100690.56;5050795;28;20108;-66
2021/03/09 00:18:32;;;;;;;37.33;18.83;;;;;;;3.38;70.42;100686.44;5050812;28;20020;-66
2021/03/09 00:20:58;;;;;;;31.93;17.63;;;;;;;3.02;71.62;100685.66;5050674;28;20468;-65
2021/03/09 00:23:23;;;;;;;30.87;17.30;;;;;;;3.21;71.06;100679.28;5050981;28;20029;-66
2021/03/09 00:25:49;;;;;;;31.00;15.87;;;;;;;3.33;70.27;100654.63;5050657;28;20065;-70
2021/03/09 00:28:19;;;;;;;32.00;16.83;;;;;;;3.39;69.96;100661.84;5050214;28;20033;-66
2021/03/09 00:30:45;;;;;;;34.83;16.53;;;;;;;3.57;69.70;100664.75;5050230;28;20476;-71
2021/03/09 00:33:10;;;;;;;31.83;16.37;;;;;;;3.58;68.42;100625.69;5047901;28;20032;-69
2021/03/09 00:35:36;;;;;;;28.27;16.33;;;;;;;3.80;67.76;100629.66;5037711;28;20112;-68
2021/03/09 00:38:01;;;;;;;29.27;17.83;;;;;;;4.02;67.57;100645.59;5050571;28;20029;-70
2021/03/09 00:40:27;;;;;;;29.40;18.60;;;;;;;4.28;66.36;100661.78;5050432;28;20025;-69
2021/03/09 00:42:52;;;;;;;25.93;16.43;;;;;;;4.16;66.26;100645.66;5050095;28;20442;-67
2021/03/09 00:45:18;;;;;;;26.07;15.20;;;;;;;4.26;65.72;100650.59;5050606;28;20064;-68
2021/03/09 00:47:43;;;;;;;27.57;15.77;;;;;;;3.92;65.99;100627.91;5050498;28;20039;-65
2021/03/09 00:50:09;;;;;;;27.53;16.37;;;;;;;3.74;66.15;100648.03;5050665;28;20036;-67
2021/03/09 00:52:35;;;;;;;26.77;15.77;;;;;;;3.54;66.91;100662.00;5050455;28;20025;-69
2021/03/09 00:55:00;;;;;;;27.03;15.37;;;;;;;3.34;67.49;100653.84;5033145;28;20454;-69
2021/03/09 00:57:26;;;;;;;25.70;15.80;;;;;;;3.15;68.14;100663.56;5031704;28;20026;-69
2021/03/09 00:59:52;;;;;;;32.10;18.33;;;;;;;3.26;68.08;100669.41;5012077;28;20044;-69
2021/03/09 01:02:17;;;;;;;29.80;16.60;;;;;;;3.27;67.97;100666.09;5032603;28;20021;-66
2021/03/09 01:04:43;;;;;;;35.50;17.27;;;;;;;3.04;68.13;100658.59;5032102;28;20029;-69
2021/03/09 01:07:08;;;;;;;26.93;16.40;;;;;;;3.07;68.54;100661.34;5033100;28;20026;-69
2021/03/09 01:09:34;;;;;;;27.50;16.20;;;;;;;3.10;68.52;100653.03;5031970;28;20492;-70
2021/03/09 01:11:59;;;;;;;25.77;15.83;;;;;;;3.18;68.84;100656.13;5031183;28;20084;-66
2021/03/09 01:14:26;;;;;;;27.83;15.37;;;;;;;3.23;68.22;100645.44;5031274;28;20029;-70
2021/03/09 01:16:52;;;;;;;25.30;16.73;;;;;;;3.38;67.34;100640.50;5034476;28;20038;-70
2021/03/09 01:19:17;;;;;;;26.30;16.50;;;;;;;3.50;66.76;100655.78;5038418;28;20047;-69
2021/03/09 01:21:43;;;;;;;26.30;16.10;;;;;;;2.96;66.64;100552.59;5035561;28;20025;-70
2021/03/09 01:24:09;;;;;;;26.97;15.83;;;;;;;3.24;66.07;100623.38;5018561;28;20069;-69
2021/03/09 01:26:34;;;;;;;29.80;15.63;;;;;;;2.87;67.68;100628.47;5034500;28;20048;-66
2021/03/09 01:29:00;;;;;;;29.43;17.50;;;;;;;2.81;68.52;100654.41;5033547;28;20113;-67
2021/03/09 01:31:25;;;;;;;26.03;15.53;;;;;;;2.61;68.43;100622.41;5034375;28;20017;-68
2021/03/09 01:33:50;;;;;;;24.70;16.37;;;;;;;2.63;69.16;100651.47;5033590;28;20026;-68
2021/03/09 01:36:16;;;;;;;30.53;18.27;;;;;;;2.63;69.77;100664.19;5035156;28;20021;-69
2021/03/09 01:38:42;;;;;;;27.33;17.00;;;;;;;2.31;70.39;100657.66;5037424;28;20104;-67
2021/03/09 01:41:08;;;;;;;29.60;17.07;;;;;;;2.47;70.32;100662.19;5045573;28;20510;-69
2021/03/09 01:43:34;;;;;;;28.33;15.43;;;;;;;2.36;71.41;100656.31;5050086;28;20103;-69
2021/03/09 01:46:00;;;;;;;25.80;15.83;;;;;;;2.50;71.50;100671.72;5053533;28;20037;-67
2021/03/09 01:48:34;;;;;;;27.80;16.57;;;;;;;2.58;70.80;100663.00;5053099;28;20021;-64
2021/03/09 01:51:00;;;;;;;23.00;15.33;;;;;;;2.46;71.74;100668.06;5053537;28;20430;-69
2021/03/09 01:53:26;;;;;;;28.43;15.20;;;;;;;2.35;72.00;100625.63;5052895;28;20021;-65
2021/03/09 01:55:51;;;;;;;26.67;15.47;;;;;;;2.37;71.55;100663.19;5053303;28;20025;-68
2021/03/09 01:58:18;;;;;;;29.27;15.40;;;;;;;2.36;72.37;100663.97;5053265;28;20036;-68
2021/03/09 02:00:43;;;;;;;27.03;14.90;;;;;;;2.32;71.71;100668.72;5034377;28;20146;-69
2021/03/09 02:03:09;;;;;;;26.93;15.33;;;;;;;2.11;72.60;100646.00;5052905;28;20046;-67
2021/03/09 02:05:35;;;;;;;30.37;15.43;;;;;;;2.45;71.63;100668.84;5007876;28;20083;-69
2021/03/09 02:08:01;;;;;;;23.77;15.60;;;;;;;2.58;71.42;100668.09;5053247;28;20051;-66
2021/03/09 02:10:27;;;;;;;25.97;15.50;;;;;;;2.34;71.47;100659.53;5052294;28;20060;-67
2021/03/09 02:13:13;;;;;;;24.83;14.80;;;;;;;2.30;72.28;100670.28;5052756;28;20029;-69
2021/03/09 02:15:52;;;;;;;26.33;15.00;;;;;;;2.38;71.50;100664.97;5052146;28;20068;-68
2021/03/09 02:18:42;;;;;;;24.77;14.67;;;;;;;2.57;71.02;100666.31;5052911;28;20082;-65
2021/03/09 02:21:16;;;;;;;;;;;;;;;2.75;70.60;100666.72;4989823;28;20045;-65
2021/03/09 02:24:08;;;;;;;24.03;14.97;;;;;;;2.87;69.59;100664.19;4991452;28;19913;-67
2021/03/09 02:27:15;;;;;;;25.00;14.63;;;;;;;2.75;69.20;100662.53;4982519;28;20046;-66
2021/03/09 02:29:40;;;;;;;24.43;14.57;;;;;;;2.78;68.80;100666.97;4927395;29;20500;-69
2021/03/09 02:32:10;;;;;;;24.47;15.63;;;;;;;2.80;68.66;100670.47;4933483;29;20050;-70
2021/03/09 02:34:52;;;;;;;23.52;14.73;;;;;;;2.54;68.61;100654.22;4933620;29;20133;-66
2021/03/09 02:37:20;;;;;;;24.93;15.40;;;;;;;2.72;68.52;100666.53;4932715;29;20058;-70
2021/03/09 02:39:48;;;;;;;23.67;14.97;;;;;;;2.81;68.25;100673.94;4934242;29;20494;-68
2021/03/09 02:42:22;;;;;;;26.50;15.63;;;;;;;2.85;68.10;100674.25;4934424;29;20054;-68
2021/03/09 02:44:52;;;;;;;22.40;13.77;;;;;;;2.74;68.17;100665.84;4933671;29;20110;-68
2021/03/09 02:47:19;;;;;;;26.93;14.90;;;;;;;2.77;68.42;100672.84;4932474;29;20040;-68
2021/03/09 02:49:45;;;;;;;24.63;14.17;;;;;;;2.75;68.44;100684.56;4936323;29;20614;-68
2021/03/09 02:52:18;;;;;;;26.87;14.23;;;;;;;2.74;68.26;100686.25;4933863;29;20586;-67
2021/03/09 02:54:45;;;;;;;25.13;15.00;;;;;;;2.78;68.12;100683.91;4934725;29;20059;-66
2021/03/09 02:57:13;;;;;;;21.43;14.53;;;;;;;2.62;67.80;100629.28;4935507;28;20071;-69
2021/03/09 02:59:40;;;;;;;22.87;14.87;;;;;;;2.88;67.66;100668.50;4952305;28;20043;-67
2021/03/09 03:02:07;;;;;;;23.13;15.20;;;;;;;2.98;67.01;100696.41;4936015;28;20182;-67
2021/03/09 03:04:34;;;;;;;24.47;14.57;;;;;;;3.02;66.87;100685.66;4949993;28;20033;-67
2021/03/09 03:07:00;;;;;;;25.97;16.70;;;;;;;3.01;66.31;100694.06;5035841;28;20044;-68
2021/03/09 03:09:26;;;;;;;25.43;14.60;;;;;;;3.01;66.11;100694.06;5033298;28;20029;-66
2021/03/09 03:11:54;;;;;;;21.17;14.33;;;;;;;2.74;65.69;100688.78;5015581;28;20055;-65
2021/03/09 03:14:21;;;;;;;20.17;12.93;;;;;;;2.58;65.91;100670.63;5032256;28;20084;-64
2021/03/09 03:16:48;;;;;;;19.93;13.43;;;;;;;2.46;65.78;100654.47;5032419;28;20021;-67
2021/03/09 03:19:15;;;;;;;28.23;13.90;;;;;;;2.74;66.03;100700.63;5030903;28;20030;-67
2021/03/09 03:21:43;;;;;;;22.30;13.03;;;;;;;2.73;65.51;100699.75;5031703;28;20029;-65
2021/03/09 03:24:09;;;;;;;26.63;13.87;;;;;;;2.67;65.33;100688.25;5035547;28;20052;-69
2021/03/09 03:26:46;;;;;;;26.07;14.03;;;;;;;2.71;65.40;100715.72;5014951;28;20579;-67
2021/03/09 03:29:14;;;;;;;24.23;13.57;;;;;;;2.76;65.38;100714.41;5034052;28;20033;-68
2021/03/09 03:31:40;;;;;;;23.50;13.83;;;;;;;2.79;65.29;100714.63;5030454;28;20045;-68
2021/03/09 03:34:06;;;;;;;26.07;16.10;;;;;;;2.43;65.43;100661.09;5033254;28;20053;-65
2021/03/09 03:36:32;;;;;;;40.97;22.07;;;;;;;2.73;65.00;100715.06;5035014;28;20021;-68
2021/03/09 03:38:58;;;;;;;28.83;16.53;;;;;;;2.69;65.12;100725.81;5031087;28;20035;-64
2021/03/09 03:41:24;;;;;;;28.37;15.80;;;;;;;2.58;65.75;100729.25;5033068;28;20033;-68
2021/03/09 03:43:50;;;;;;;25.60;14.63;;;;;;;2.30;67.54;100727.19;5031561;28;20186;-64
2021/03/09 03:46:15;;;;;;;28.50;14.97;;;;;;;1.84;68.93;100695.75;5030886;28;20033;-68
2021/03/09 03:48:42;;;;;;;35.00;21.20;;;;;;;2.13;68.83;100735.25;5033243;28;20113;-68
2021/03/09 03:51:12;;;;;;;28.23;17.53;;;;;;;1.87;68.78;100694.34;5033270;28;20057;-69
2021/03/09 03:54:06;;;;;;;27.63;15.97;;;;;;;2.07;66.99;100728.94;5032510;28;20084;-66
2021/03/09 03:56:49;;;;;;;28.73;16.27;;;;;;;2.09;66.68;100727.41;5032943;28;20029;-66
2021/03/09 03:59:23;;;;;;;23.80;14.80;;;;;;;2.10;66.40;100741.00;5031477;28;20026;-64
2021/03/09 04:01:50;;;;;;;25.63;15.70;;;;;;;2.00;66.57;100741.97;5031632;28;20033;-67
2021/03/09 04:04:18;;;;;;;24.47;13.40;;;;;;;1.85;67.65;100725.53;5030744;28;20029;-68
2021/03/09 04:06:48;;;;;;;33.73;17.10;;;;;;;1.90;66.52;100735.28;5034942;28;20032;-65
2021/03/09 04:09:15;;;;;;;248.57;76.57;;;;;;;1.88;67.30;100741.94;5031749;28;20029;-69
2021/03/09 04:11:42;;;;;;;51.00;23.33;;;;;;;1.99;67.59;100746.94;5032825;28;20108;-68
2021/03/09 04:14:12;;;;;;;25.73;15.70;;;;;;;1.82;67.46;100699.84;5037953;28;20476;-69
2021/03/09 04:16:40;;;;;;;42.63;20.63;;;;;;;2.09;67.22;100741.78;5050549;28;20021;-67
2021/03/09 04:19:06;;;;;;;36.57;16.63;;;;;;;2.12;66.45;100741.09;5050936;28;20091;-69
2021/03/09 04:21:33;;;;;;;28.97;16.40;;;;;;;2.04;66.22;100722.72;5050842;28;20025;-67
2021/03/09 04:24:01;;;;;;;30.73;18.83;;;;;;;2.12;66.50;100726.75;5050650;28;20138;-67
2021/03/09 04:26:28;;;;;;;27.70;15.30;;;;;;;2.16;66.61;100743.13;5050760;28;20072;-67
2021/03/09 04:28:55;;;;;;;25.83;14.03;;;;;;;2.12;67.17;100744.56;5050595;28;20044;-66
2021/03/09 04:31:21;;;;;;;21.30;13.90;;;;;;;1.83;67.83;100722.84;5050913;28;20039;-68
2021/03/09 04:33:49;;;;;;;27.03;15.43;;;;;;;1.87;66.80;100746.88;5050664;28;20108;-69
2021/03/09 04:36:16;;;;;;;22.13;15.63;;;;;;;1.75;67.00;100751.94;5050254;28;20573;-68
2021/03/09 04:38:41;;;;;;;23.00;14.70;;;;;;;1.73;67.60;100763.66;5032974;28;20479;-65
2021/03/09 04:41:07;;;;;;;25.37;14.37;;;;;;;1.77;66.83;100773.31;5050710;28;20032;-69
2021/03/09 04:43:34;;;;;;;27.27;14.27;;;;;;;1.80;67.13;100771.00;5050501;28;20032;-70
2021/03/09 04:46:01;;;;;;;25.40;15.40;;;;;;;1.64;67.34;100738.38;5047764;28;20029;-71
2021/03/09 04:48:28;;;;;;;29.33;15.87;;;;;;;1.85;67.82;100766.28;5049508;28;20499;-69
2021/03/09 04:51:01;;;;;;;37.67;20.50;;;;;;;1.90;67.92;100765.84;5050780;28;20090;-66
2021/03/09 04:53:28;;;;;;;31.43;16.87;;;;;;;1.88;68.36;100751.22;5054413;28;20047;-68
2021/03/09 04:55:56;;;;;;;25.77;14.87;;;;;;;2.10;68.73;100754.59;5054467;28;20507;-66
2021/03/09 04:58:21;;;;;;;27.27;15.77;;;;;;;2.18;69.17;100760.31;5044521;28;20025;-67
2021/03/09 05:00:47;;;;;;;24.20;16.03;;;;;;;2.13;69.04;100736.16;5053941;28;20116;-68
2021/03/09 05:03:12;;;;;;;24.87;14.20;;;;;;;2.19;69.06;100762.06;5053991;28;20033;-68
2021/03/09 05:05:38;;;;;;;24.20;13.90;;;;;;;2.04;69.94;100758.38;5053820;28;20380;-68
2021/03/09 05:08:04;;;;;;;29.97;14.80;;;;;;;1.83;69.95;100720.31;5053862;28;20025;-66
2021/03/09 05:10:29;;;;;;;34.43;18.60;;;;;;;2.07;69.71;100764.59;5052886;28;20149;-69
2021/03/09 05:12:55;;;;;;;44.33;21.30;;;;;;;1.66;69.61;100725.78;5053831;28;20029;-68
2021/03/09 05:15:20;;;;;;;49.57;22.87;;;;;;;1.84;70.57;100772.13;5053932;28;20027;-65
2021/03/09 05:17:47;;;;;;;44.97;22.50;;;;;;;1.89;70.74;100781.00;5052932;28;20068;-71
2021/03/09 05:20:15;;;;;;;48.33;24.43;;;;;;;1.91;71.06;100785.44;5035416;28;20052;-67
2021/03/09 05:22:41;;;;;;;39.43;21.30;;;;;;;1.83;70.79;100772.91;5053856;28;20128;-70
2021/03/09 05:25:09;;;;;;;44.57;21.33;;;;;;;1.95;70.76;100789.13;5053684;28;20504;-67
2021/03/09 05:27:35;;;;;;;28.13;14.93;;;;;;;2.00;71.98;100784.38;5052914;28;20056;-69
2021/03/09 05:30:01;;;;;;;24.53;13.13;;;;;;;2.04;73.72;100784.72;5053692;28;20033;-68
2021/03/09 05:32:26;;;;;;;24.60;13.00;;;;;;;1.72;73.93;100704.25;5053272;28;20033;-70
2021/03/09 05:34:52;;;;;;;24.03;13.00;;;;;;;2.29;73.82;100768.72;5053505;28;20059;-67
2021/03/09 05:37:17;;;;;;;26.87;14.83;;;;;;;2.42;73.42;100771.44;5053593;28;20109;-71
2021/03/09 05:39:43;;;;;;;48.33;19.77;;;;;;;2.54;72.89;100776.56;5053304;28;20098;-67
2021/03/09 05:42:09;;;;;;;157.77;43.60;;;;;;;2.58;72.84;100778.56;5053584;28;20055;-68
2021/03/09 05:44:36;;;;;;;183.80;48.30;;;;;;;2.56;72.86;100785.19;5053065;28;20728;-68
2021/03/09 05:47:03;;;;;;;45.93;20.97;;;;;;;2.48;71.96;100768.47;5053112;28;20036;-69
2021/03/09 05:49:29;;;;;;;34.13;20.70;;;;;;;1.85;71.40;100735.72;5053062;28;20037;-70
2021/03/09 05:51:55;;;;;;;32.57;19.57;;;;;;;2.03;70.80;100784.59;5053597;28;20029;-67
2021/03/09 05:54:21;;;;;;;38.03;23.70;;;;;;;2.20;71.14;100784.22;5052616;28;20186;-67
2021/03/09 05:56:47;;;;;;;36.97;22.57;;;;;;;2.44;70.31;100791.91;5052310;28;20029;-70
2021/03/09 05:59:13;;;;;;;48.07;23.67;;;;;;;2.53;70.44;100789.16;5052822;28;20021;-71
2021/03/09 06:01:38;;;;;;;30.23;16.97;;;;;;;2.72;70.20;100799.97;5052525;28;20047;-70
2021/03/09 06:04:05;;;;;;;33.00;16.83;;;;;;;2.74;70.25;100808.63;5051716;28;20099;-68
2021/03/09 06:06:32;;;;;;;30.53;16.77;;;;;;;2.79;71.47;100811.53;5052852;28;20112;-71
2021/03/09 06:08:57;;;;;;;32.27;17.57;;;;;;;2.91;70.78;100820.03;5054455;28;20033;-67
2021/03/09 06:11:23;;;;;;;29.53;17.57;;;;;;;2.97;70.95;100817.06;5052392;28;20111;-66
2021/03/09 06:13:49;;;;;;;34.07;21.27;;;;;;;3.01;71.02;100818.19;5034584;28;20033;-67
2021/03/09 06:16:15;;;;;;;33.43;23.67;;;;;;;3.14;71.56;100819.94;5051699;28;20087;-67
2021/03/09 06:18:56;;;;;;;37.70;20.53;;;;;;;3.30;71.42;100822.84;5052346;28;20065;-66
2021/03/09 06:21:23;;;;;;;23.97;16.07;;;;;;;3.36;71.73;100815.59;5052176;28;20025;-69
2021/03/09 06:23:49;;;;;;;26.10;16.33;;;;;;;3.39;72.09;100805.63;5052247;28;20029;-71
2021/03/09 06:26:36;;;;;;;26.80;16.50;;;;;;;3.45;72.57;100806.84;5049215;28;20056;-67
2021/03/09 06:29:13;;;;;;;29.67;16.30;;;;;;;3.51;72.71;100817.47;5048828;28;20029;-69
2021/03/09 06:31:40;;;;;;;28.23;17.60;;;;;;;3.59;73.07;100818.91;5050428;28;20028;-67
2021/03/09 06:34:28;;;;;;;22.63;16.37;;;;;;;3.51;73.40;100820.91;5052405;28;20021;-69
2021/03/09 06:37:02;;;;;;;26.63;16.57;;;;;;;3.68;73.53;100831.44;5051186;28;20037;-69
2021/03/09 06:39:57;;;;;;;24.23;16.77;;;;;;;3.82;72.75;100833.28;5050272;28;20025;-69
2021/03/09 06:42:38;;;;;;;23.93;16.40;;;;;;;4.07;72.85;100839.22;5048435;28;20029;-69
2021/03/09 06:45:05;;;;;;;27.27;18.57;;;;;;;4.28;72.27;100842.38;5052026;28;20032;-68
2021/03/09 06:47:45;;;;;;;30.60;18.67;;;;;;;4.41;72.14;100836.41;5046482;28;20060;-68
2021/03/09 06:50:20;;;;;;;24.23;17.13;;;;;;;4.63;71.92;100842.16;5051468;28;20154;-69
2021/03/09 06:53:03;;;;;;;31.67;21.67;;;;;;;4.54;71.33;100806.66;5052538;28;20079;-69
2021/03/09 06:55:31;;;;;;;33.97;21.17;;;;;;;4.96;71.33;100842.66;5045417;28;20017;-69
2021/03/09 06:58:12;;;;;;;31.25;21.10;;;;;;;5.09;71.05;100828.09;5051688;28;20082;-69
2021/03/09 07:00:38;;;;;;;28.48;19.98;;;;;;;5.31;70.68;100849.16;5046228;28;20431;-68
2021/03/09 07:03:04;;;;;;;31.52;20.48;;;;;;;5.41;70.75;100842.06;5051456;28;20087;-69
2021/03/09 07:05:30;;;;;;;34.78;19.65;;;;;;;5.57;69.86;100843.91;5024203;28;20041;-69
2021/03/09 07:07:55;;;;;;;36.60;22.25;;;;;;;5.50;69.96;100835.84;5051455;28;20013;-69
2021/03/09 07:10:25;;;;;;;29.27;19.73;;;;;;;5.58;69.56;100845.69;5051151;28;20024;-69
2021/03/09 07:12:50;;;;;;;33.17;19.88;;;;;;;5.45;69.25;100816.75;5051547;28;20033;-69
2021/03/09 07:15:18;;;;;;;29.58;20.35;;;;;;;5.74;66.89;100834.72;5051022;28;20476;-69
2021/03/09 07:17:46;;;;;;;35.20;22.48;;;;;;;5.87;65.56;100834.72;5051473;28;20060;-69
2021/03/09 07:20:14;;;;;;;30.50;21.05;;;;;;;5.97;61.83;100833.59;5051647;28;20025;-69
2021/03/09 07:22:42;;;;;;;30.73;21.05;;;;;;;5.93;62.50;100812.03;5051666;28;20108;-69
2021/03/09 07:25:08;;;;;;;31.38;20.55;;;;;;;6.17;62.03;100831.38;5050752;28;20090;-69
2021/03/09 07:27:49;;;;;;;28.52;19.77;;;;;;;6.26;62.46;100832.81;5033332;28;20052;-69
2021/03/09 07:30:17;;;;;;;32.63;20.80;;;;;;;6.40;61.79;100828.50;5051284;28;20068;-68
2021/03/09 07:32:47;;;;;;;31.33;21.10;;;;;;;6.54;61.34;100831.91;5051187;28;20028;-69
2021/03/09 07:35:14;;;;;;;27.40;20.23;;;;;;;6.62;61.17;100840.94;5051064;28;20064;-69
2021/03/09 07:37:41;;;;;;;27.73;19.90;;;;;;;6.63;60.77;100842.72;5050641;28;20031;-69
2021/03/09 07:40:13;;;;;;;32.85;18.70;;;;;;;6.70;60.12;100848.19;5051281;28;20107;-69
2021/03/09 07:42:39;;;;;;;29.88;19.63;;;;;;;6.75;59.98;100841.66;5051182;28;20392;-69
2021/03/09 07:45:09;;;;;;;27.45;18.30;;;;;;;6.69;59.04;100808.84;5051313;28;20033;-69
2021/03/09 07:48:03;;;;;;;27.80;19.48;;;;;;;7.00;58.92;100837.94;5051167;28;20025;-69
2021/03/09 07:50:37;;;;;;;30.20;18.85;;;;;;;7.11;58.99;100835.16;4969719;28;20043;-68
2021/03/09 07:53:18;;;;;;;28.52;19.77;;;;;;;7.24;59.30;100836.78;4967543;28;20034;-69
2021/03/09 07:55:44;;;;;;;30.58;19.58;;;;;;;7.39;57.93;100835.84;4968665;28;20054;-69
2021/03/09 07:58:19;;;;;;;28.13;18.02;;;;;;;7.06;57.75;100835.72;4970031;28;20481;-69
2021/03/09 08:00:47;;;;;;;219.38;98.95;;;;;;;7.08;58.62;100841.84;4969758;28;20037;-69
2021/03/09 08:03:40;;;;;;;29.10;21.00;;;;;;;7.17;57.38;100829.50;4969856;28;20046;-69
2021/03/09 08:06:16;;;;;;;28.48;18.92;;;;;;;7.31;57.59;100844.81;4968239;28;20039;-69
2021/03/09 08:08:51;;;;;;;27.90;18.92;;;;;;;7.28;58.44;100825.88;4969468;28;20062;-69
2021/03/09 08:11:20;;;;;;;26.45;18.17;;;;;;;7.48;55.97;100835.47;4969537;28;20035;-69
2021/03/09 08:14:08;;;;;;;26.63;17.48;;;;;;;7.63;55.50;100815.78;4969646;28;20039;-69
2021/03/09 08:16:38;;;;;;;26.33;17.33;;;;;;;7.52;55.47;100804.91;4912411;29;20098;-69
2021/03/09 08:19:07;;;;;;;163.88;72.50;;;;;;;7.58;57.54;100794.09;4912477;29;20159;-69
2021/03/09 08:21:58;;;;;;;33.25;20.77;;;;;;;7.82;54.77;100827.91;4912034;29;20135;-69
2021/03/09 08:24:45;;;;;;;26.63;16.83;;;;;;;8.00;53.79;100819.41;4908237;29;20028;-69
2021/03/09 08:27:29;;;;;;;24.10;16.10;;;;;;;8.15;53.14;100812.53;4937628;28;20505;-70
2021/03/09 08:30:07;;;;;;;22.95;16.48;;;;;;;8.21;52.67;100799.09;4981378;28;20201;-69
2021/03/09 08:32:38;;;;;;;22.45;16.55;;;;;;;8.29;52.82;100791.75;4972943;28;20027;-69
2021/03/09 08:35:12;;;;;;;25.92;16.58;;;;;;;8.24;53.10;100805.28;4974362;28;20053;-69
2021/03/09 08:37:45;;;;;;;24.17;17.52;;;;;;;8.40;53.32;100812.09;4973792;28;20413;-69
2021/03/09 08:40:14;;;;;;;24.40;17.25;;;;;;;8.55;52.93;100809.44;4973162;28;20414;-69
2021/03/09 08:43:01;;;;;;;23.73;17.17;;;;;;;8.67;52.10;100816.03;4973845;28;20071;-70
2021/03/09 08:45:36;;;;;;;21.80;16.52;;;;;;;8.70;53.02;100805.91;4973405;28;20019;-70
2021/03/09 08:48:01;;;;;;;27.27;17.77;;;;;;;8.76;55.80;100808.78;4973671;28;20430;-69
2021/03/09 08:50:42;;;;;;;25.40;17.05;;;;;;;8.93;52.79;100811.28;4972796;28;20030;-69
2021/03/09 08:53:31;;;;;;;36.25;20.77;;;;;;;9.13;53.74;100813.13;4980354;28;20121;-69
2021/03/09 08:55:58;;;;;;;24.27;16.25;;;;;;;9.31;51.88;100809.66;5014117;28;20030;-69
2021/03/09 08:58:24;;;;;;;21.40;16.30;;;;;;;9.36;51.53;100803.06;5014604;28;20109;-68
2021/03/09 09:00:51;;;;;;;25.73;17.10;;;;;;;9.41;50.76;100796.44;5014521;28;20113;-69
2021/03/09 09:03:36;;;;;;;27.60;16.88;;;;;;;9.46;50.84;100791.47;5014593;28;20037;-69
2021/03/09 09:06:02;;;;;;;123.32;48.90;;;;;;;9.00;51.72;100706.06;5014526;28;20543;-70
2021/03/09 09:08:29;;;;;;;25.48;17.75;;;;;;;9.67;50.95;100791.56;5014437;28;20480;-69
2021/03/09 09:10:56;;;;;;;26.88;18.15;;;;;;;9.76;50.95;100793.69;5013027;28;20041;-69
2021/03/09 09:13:33;;;;;;;26.45;17.70;;;;;;;9.92;49.57;100814.22;5014356;28;20026;-69
2021/03/09 09:15:59;;;;;;;26.88;17.67;;;;;;;10.01;49.48;100814.63;5014235;28;20129;-69
2021/03/09 09:18:25;;;;;;;24.02;16.13;;;;;;;9.87;50.13;100777.03;5016181;28;20096;-69
2021/03/09 09:20:51;;;;;;;25.20;17.58;;;;;;;10.02;51.03;100806.06;5014257;28;20038;-70
2021/03/09 09:23:25;;;;;;;27.73;20.45;;;;;;;10.11;50.53;100774.63;5014115;28;20456;-69
2021/03/09 09:25:56;;;;;;;24.65;17.52;;;;;;;10.24;48.60;100780.34;5024579;28;20053;-69
2021/03/09 09:28:25;;;;;;;24.55;17.25;;;;;;;10.30;47.98;100790.91;5053664;28;20060;-70
2021/03/09 09:30:51;;;;;;;25.58;17.30;;;;;;;10.54;47.64;100787.66;5053792;28;20043;-69
2021/03/09 09:33:17;;;;;;;21.42;16.58;;;;;;;10.67;48.23;100790.81;5053473;28;20553;-69
2021/03/09 09:35:44;;;;;;;23.70;15.52;;;;;;;10.75;47.01;100791.13;5048760;28;20021;-70
2021/03/09 09:38:12;;;;;;;24.48;15.98;;;;;;;10.89;45.54;100802.03;5052992;28;20032;-70
2021/03/09 09:40:38;;;;;;;22.25;14.82;;;;;;;11.07;44.47;100799.31;5052880;28;20024;-70
2021/03/09 09:43:17;;;;;;;34.70;18.20;;;;;;;11.26;43.01;100797.47;5053634;28;20028;-70
2021/03/09 09:45:43;;;;;;;75.57;36.38;;;;;;;11.05;42.82;100751.84;5053729;28;20029;-69
2021/03/09 09:48:12;;;;;;;34.72;19.10;;;;;;;11.08;43.34;100767.50;5053427;28;20112;-70
2021/03/09 09:50:46;;;;;;;296.45;98.32;;;;;;;11.29;44.63;100771.72;5053217;28;20103;-70
2021/03/09 09:53:12;;;;;;;36.88;18.58;;;;;;;11.46;45.64;100769.78;5053157;28;20493;-69
2021/03/09 09:55:38;;;;;;;171.07;61.45;;;;;;;11.46;44.49;100765.53;5053290;28;20484;-69
2021/03/09 09:58:04;;;;;;;34.00;16.27;;;;;;;11.64;43.14;100774.78;5053109;28;20036;-69
2021/03/09 10:00:32;;;;;;;29.17;14.10;;;;;;;11.69;41.55;100759.44;5053276;28;20029;-70
2021/03/09 10:03:12;;;;;;;98.40;40.42;;;;;;;11.98;42.64;100774.34;5053185;28;20078;-69
2021/03/09 10:05:38;;;;;;;46.50;21.98;;;;;;;12.07;40.40;100758.25;5052546;28;20025;-69
2021/03/09 10:08:05;;;;;;;28.48;14.68;;;;;;;12.17;40.07;100766.38;5053024;28;20060;-70
2021/03/09 10:10:31;;;;;;;26.48;15.32;;;;;;;11.88;39.93;100774.81;5053396;28;20032;-69
2021/03/09 10:12:56;;;;;;;22.17;12.00;;;;;;;11.77;40.24;100778.72;5052715;28;20096;-70
2021/03/09 10:15:22;;;;;;;50.88;26.40;;;;;;;11.85;40.29;100768.63;5052645;28;20109;-69
2021/03/09 10:17:48;;;;;;;46.03;22.17;;;;;;;11.89;42.41;100771.41;5052520;28;20408;-70
2021/03/09 10:20:24;;;;;;;19.90;11.35;;;;;;;11.96;39.42;100762.16;5052844;28;20079;-69
2021/03/09 10:23:10;;;;;;;23.20;11.10;;;;;;;11.96;40.30;100775.09;5052604;28;20029;-70
2021/03/09 10:25:40;;;;;;;23.83;10.35;;;;;;;11.96;38.75;100780.28;5051950;28;20087;-69
2021/03/09 10:28:06;;;;;;;18.25;10.70;;;;;;;12.24;40.97;100781.28;5001215;28;20037;-70
2021/03/09 10:30:42;;;;;;;16.05;9.02;;;;;;;12.30;36.90;100769.44;5052108;28;20146;-67
2021/03/09 10:33:11;;;;;;;16.00;9.07;;;;;;;12.54;38.25;100780.59;5052712;28;20035;-67
2021/03/09 10:36:06;;;;;;;14.00;8.25;;;;;;;12.18;37.06;100773.31;5038937;28;20025;-72
2021/03/09 10:38:32;;;;;;;14.30;8.50;;;;;;;12.10;37.17;100755.78;5017308;28;20492;-69
2021/03/09 10:40:58;;;;;;;16.58;8.85;;;;;;;12.16;38.75;100764.59;5052087;28;20031;-66
2021/03/09 10:43:46;;;;;;;53.92;30.13;;;;;;;12.29;36.74;100774.56;5052192;28;20025;-71
2021/03/09 10:46:13;;;;;;;17.80;9.23;;;;;;;12.19;37.53;100780.25;5052361;28;20155;-71
2021/03/09 10:48:39;;;;;;;20.58;9.90;;;;;;;11.93;36.58;100765.50;5051011;28;20460;-68
2021/03/09 10:51:25;;;;;;;14.45;8.73;;;;;;;12.13;37.69;100763.66;5052399;28;20032;-69
2021/03/09 10:53:50;;;;;;;105.80;32.85;;;;;;;12.23;34.66;100754.50;5051695;28;20087;-69
2021/03/09 10:56:16;;;;;;;202.27;67.40;;;;;;;12.30;35.49;100760.78;5052267;28;20021;-69
2021/03/09 10:58:41;;;;;;;64.63;27.02;;;;;;;12.53;36.81;100761.56;5052409;28;20051;-70
2021/03/09 11:01:08;;;;;;;19.02;10.05;;;;;;;12.37;36.26;100754.09;5039614;28;20033;-68
2021/03/09 11:03:34;;;;;;;16.63;8.27;;;;;;;12.20;34.99;100749.25;5052744;28;20112;-70
2021/03/09 11:05:59;;;;;;;69.80;27.30;;;;;;;11.90;36.23;100743.81;5052140;28;20064;-72
2021/03/09 11:08:25;;;;;;;22.25;10.35;;;;;;;11.79;36.70;100715.84;5052399;28;20025;-70
2021/03/09 11:10:52;;;;;;;146.77;60.38;;;;;;;12.03;38.16;100740.88;5052325;28;20033;-69
2021/03/09 11:13:18;;;;;;;17.17;8.52;;;;;;;12.05;36.50;100734.06;5052450;28;20400;-69
2021/03/09 11:15:44;;;;;;;16.67;8.38;;;;;;;12.11;36.72;100716.16;5052406;28;20032;-72
2021/03/09 11:18:09;;;;;;;16.30;8.98;;;;;;;11.98;35.44;100688.94;5052230;28;20024;-71
2021/03/09 11:20:35;;;;;;;17.58;8.77;;;;;;;12.26;36.93;100722.66;5051807;28;20021;-72
2021/03/09 11:23:00;;;;;;;30.50;14.57;;;;;;;12.21;35.30;100699.22;5034402;28;20111;-71
2021/03/09 11:25:27;;;;;;;22.90;11.27;;;;;;;12.42;35.33;100718.88;5051935;28;20051;-71
2021/03/09 11:27:53;;;;;;;26.90;13.40;;;;;;;12.40;35.26;100707.59;5051388;28;20083;-69